Time;durP1;ratioP1;P1;durP2;ratioP2;P2;SDS_P1;SDS_P2;PMS_P1;PMS_P2;Temp;Humidity;BMP_temperature;BMP_pressure;BME280_temperature;BME280_humidity;BME280_pressure;Samples;Min_cycle;Max_cycle;Signal;HPM_P1;HPM_P2
2021/03/23 00:00:49;;;;;;;8.55;2.95;;;6.20;92.00;;;;;;5047733;28;20036;-69
2021/03/23 00:03:20;;;;;;;10.40;3.30;;;6.20;92.00;;;;;;5047840;28;20095;-69
2021/03/23 00:05:45;;;;;;;8.05;3.33;;;6.20;92.10;;;;;;5048450;28;20057;-67
2021/03/23 00:08:27;;;;;;;8.48;3.25;;;6.30;91.90;;;;;;5047131;28;20134;-68
2021/03/23 00:10:55;;;;;;;8.35;3.22;;;6.30;91.70;;;;;;5046257;28;20055;-68
2021/03/23 00:13:20;;;;;;;6.40;3.33;;;6.20;91.70;;;;;;5043466;28;20074;-68
2021/03/23 00:15:47;;;;;;;10.98;3.90;;;6.20;91.80;;;;;;5047870;28;20033;-68
2021/03/23 00:18:14;;;;;;;8.75;3.33;;;6.20;91.50;;;;;;5048221;28;20032;-66
2021/03/23 00:20:40;;;;;;;6.90;3.15;;;6.20;91.60;;;;;;5047979;28;20036;-68
2021/03/23 00:23:07;;;;;;;9.98;3.83;;;6.20;91.70;;;;;;5042834;28;20028;-67
2021/03/23 00:25:33;;;;;;;6.93;3.33;;;6.10;91.80;;;;;;5044458;28;20462;-67
2021/03/23 00:27:58;;;;;;;10.57;3.20;;;6.10;91.70;;;;;;5045961;28;20021;-67
2021/03/23 00:30:24;;;;;;;9.50;3.30;;;6.10;91.70;;;;;;5045744;28;20029;-68
2021/03/23 00:32:53;;;;;;;10.68;3.40;;;6.20;91.70;;;;;;5044899;28;20147;-68
2021/03/23 00:35:19;;;;;;;8.40;2.90;;;6.10;91.70;;;;;;5047530;28;20024;-66
2021/03/23 00:37:49;;;;;;;8.38;2.80;;;6.10;91.80;;;;;;5045504;28;20028;-67
2021/03/23 00:40:19;;;;;;;5.60;3.28;;;6.10;91.80;;;;;;5045740;28;20033;-67
2021/03/23 00:42:45;;;;;;;6.70;2.65;;;6.10;91.70;;;;;;5045418;28;20021;-66
2021/03/23 00:45:11;;;;;;;8.05;2.90;;;6.10;91.50;;;;;;5046272;28;20064;-67
2021/03/23 00:47:37;;;;;;;5.90;3.28;;;6.10;91.40;;;;;;5047224;28;20058;-67
2021/03/23 00:50:04;;;;;;;8.60;2.90;;;6.10;91.50;;;;;;5047641;28;20052;-67
2021/03/23 00:52:30;;;;;;;8.43;3.38;;;6.00;91.70;;;;;;5047274;28;20060;-67
2021/03/23 00:54:56;;;;;;;6.32;2.60;;;6.00;91.80;;;;;;5047038;28;20067;-67
2021/03/23 00:57:21;;;;;;;7.35;2.72;;;6.00;92.00;;;;;;5048925;28;20462;-66
2021/03/23 00:59:47;;;;;;;4.70;2.15;;;6.00;91.80;;;;;;5046532;28;20025;-67
2021/03/23 01:02:13;;;;;;;7.18;2.03;;;6.00;91.80;;;;;;5045959;28;20071;-66
2021/03/23 01:04:38;;;;;;;6.38;1.77;;;6.00;91.60;;;;;;5044902;28;20037;-66
2021/03/23 01:07:04;;;;;;;4.32;1.77;;;5.90;91.50;;;;;;5047527;28;20048;-67
2021/03/23 01:09:30;;;;;;;4.03;1.75;;;6.00;91.50;;;;;;5045877;28;20492;-67
2021/03/23 01:11:56;;;;;;;4.03;1.80;;;5.90;91.40;;;;;;5045862;28;20029;-67
2021/03/23 01:14:22;;;;;;;6.82;2.50;;;5.90;91.40;;;;;;5047838;28;20032;-66
2021/03/23 01:16:47;;;;;;;5.40;2.20;;;5.90;91.60;;;;;;5046759;28;20722;-66
2021/03/23 01:19:14;;;;;;;7.10;2.28;;;5.90;91.50;;;;;;5045561;28;20033;-66
2021/03/23 01:21:40;;;;;;;6.43;2.70;;;5.80;91.50;;;;;;5049902;28;20133;-67
2021/03/23 01:24:07;;;;;;;5.97;2.63;;;5.90;91.70;;;;;;5047678;28;20084;-66
2021/03/23 01:26:33;;;;;;;9.15;2.70;;;5.90;91.60;;;;;;5045837;28;20068;-66
2021/03/23 01:28:58;;;;;;;4.00;2.15;;;5.80;91.70;;;;;;5048622;28;20073;-67
2021/03/23 01:31:24;;;;;;;6.68;2.42;;;5.80;91.70;;;;;;5028351;28;20112;-68
2021/03/23 01:33:50;;;;;;;5.13;2.42;;;5.80;91.70;;;;;;5049239;28;20036;-66
2021/03/23 01:36:15;;;;;;;4.97;2.17;;;5.90;91.60;;;;;;5047374;28;20360;-69
2021/03/23 01:38:44;;;;;;;4.30;2.30;;;5.80;91.60;;;;;;5046102;28;20394;-71
2021/03/23 01:41:13;;;;;;;6.10;2.45;;;5.80;91.60;;;;;;5045779;28;20482;-66
2021/03/23 01:43:38;;;;;;;7.40;2.22;;;5.80;91.70;;;;;;5045320;28;20043;-68
2021/03/23 01:46:31;;;;;;;5.32;1.85;;;5.80;91.70;;;;;;5047550;28;20059;-66
2021/03/23 01:48:59;;;;;;;7.70;2.13;;;5.80;91.70;;;;;;5046025;28;20025;-67
2021/03/23 01:51:25;;;;;;;7.55;2.72;;;5.80;91.60;;;;;;5045764;28;20098;-68
2021/03/23 01:54:02;;;;;;;4.18;2.00;;;5.80;91.60;;;;;;5046561;28;20103;-66
2021/03/23 01:56:27;;;;;;;4.85;1.92;;;5.90;91.40;;;;;;5043333;28;20026;-66
2021/03/23 01:58:55;;;;;;;8.07;2.45;;;5.90;91.20;;;;;;5047065;28;20082;-67
2021/03/23 02:01:21;;;;;;;9.32;2.65;;;5.90;91.30;;;;;;5047382;28;20462;-66
2021/03/23 02:03:48;;;;;;;7.22;2.10;;;5.90;91.30;;;;;;5048885;28;20053;-68
2021/03/23 02:06:36;;;;;;;4.28;1.77;;;5.90;91.10;;;;;;5047156;28;20150;-67
2021/03/23 02:09:05;;;;;;;7.63;1.80;;;5.80;91.10;;;;;;5045923;28;20042;-68
2021/03/23 02:11:32;;;;;;;8.07;2.28;;;5.80;91.00;;;;;;5046267;28;20052;-66
2021/03/23 02:13:58;;;;;;;4.32;1.98;;;5.90;91.10;;;;;;5047827;28;20175;-68
2021/03/23 02:16:24;;;;;;;3.03;1.48;;;5.80;91.10;;;;;;5045979;28;20039;-67
2021/03/23 02:18:50;;;;;;;5.32;1.98;;;5.80;91.10;;;;;;5046423;28;20036;-68
2021/03/23 02:21:20;;;;;;;3.67;1.77;;;5.80;91.00;;;;;;5046094;28;20038;-68
2021/03/23 02:23:48;;;;;;;5.85;1.98;;;5.90;91.00;;;;;;5045398;28;20028;-67
2021/03/23 02:26:30;;;;;;;4.50;1.52;;;5.90;91.00;;;;;;5048142;28;20054;-66
2021/03/23 02:29:01;;;;;;;4.95;1.80;;;5.90;90.80;;;;;;5043917;28;20024;-66
2021/03/23 02:31:56;;;;;;;6.15;1.52;;;5.90;90.50;;;;;;5047580;28;20056;-66
2021/03/23 02:34:23;;;;;;;4.07;1.40;;;5.90;90.60;;;;;;5024474;28;20033;-67
2021/03/23 02:36:50;;;;;;;3.47;1.33;;;5.90;90.40;;;;;;5048252;28;20048;-66
2021/03/23 02:39:20;;;;;;;3.20;1.52;;;5.90;90.40;;;;;;5049994;28;20445;-66
2021/03/23 02:41:45;;;;;;;4.70;1.88;;;5.90;90.40;;;;;;5049062;28;20380;-66
2021/03/23 02:44:11;;;;;;;2.28;1.58;;;5.90;90.50;;;;;;5049545;28;20028;-67
2021/03/23 02:46:37;;;;;;;7.78;1.50;;;5.90;90.40;;;;;;5048501;28;20150;-68
2021/03/23 02:49:05;;;;;;;7.20;1.80;;;5.90;90.50;;;;;;5051003;28;20035;-67
2021/03/23 02:51:31;;;;;;;9.38;2.08;;;5.90;90.40;;;;;;5053609;28;20701;-67
2021/03/23 02:53:56;;;;;;;7.22;2.05;;;5.90;90.40;;;;;;5051197;28;20044;-67
2021/03/23 02:56:22;;;;;;;7.20;1.80;;;5.90;90.40;;;;;;5049053;28;20078;-68
2021/03/23 02:58:48;;;;;;;4.63;1.90;;;6.00;90.10;;;;;;5053266;28;20037;-68
2021/03/23 03:01:15;;;;;;;5.70;1.88;;;5.90;90.30;;;;;;5048453;28;20036;-67
2021/03/23 03:03:41;;;;;;;5.50;1.88;;;5.90;90.30;;;;;;5048844;28;20348;-68
2021/03/23 03:06:07;;;;;;;4.15;1.70;;;5.90;90.40;;;;;;5051251;28;20032;-67
2021/03/23 03:08:34;;;;;;;4.72;1.85;;;5.90;90.10;;;;;;5051052;28;20028;-67
2021/03/23 03:11:03;;;;;;;11.18;2.33;;;5.90;90.20;;;;;;5048942;28;20040;-67
2021/03/23 03:13:29;;;;;;;4.32;1.85;;;5.90;90.30;;;;;;5048265;28;20029;-67
2021/03/23 03:15:56;;;;;;;5.75;2.17;;;5.90;90.20;;;;;;5051064;28;20079;-66
2021/03/23 03:18:26;;;;;;;5.40;2.13;;;5.90;90.30;;;;;;5049069;28;20029;-68
2021/03/23 03:20:54;;;;;;;4.25;2.67;;;5.90;90.40;;;;;;5051141;28;20112;-66
2021/03/23 03:23:19;;;;;;;5.68;2.22;;;5.90;90.10;;;;;;5051567;28;20033;-67
2021/03/23 03:25:47;;;;;;;5.20;2.10;;;5.90;90.20;;;;;;5045381;28;20078;-66
2021/03/23 03:28:13;;;;;;;8.27;2.65;;;5.90;90.30;;;;;;5076027;22;20037;-67
2021/03/23 03:30:40;;;;;;;4.63;2.10;;;5.80;90.40;;;;;;5048193;28;20624;-70
2021/03/23 03:33:08;;;;;;;4.43;2.30;;;5.90;90.20;;;;;;5047516;28;20293;-66
2021/03/23 03:35:36;;;;;;;6.55;2.17;;;5.90;90.40;;;;;;5049617;28;20032;-68
2021/03/23 03:38:03;;;;;;;7.75;2.10;;;5.90;90.40;;;;;;5050849;28;20063;-68
2021/03/23 03:40:36;;;;;;;7.25;2.08;;;5.90;90.30;;;;;;5069750;28;20039;-68
2021/03/23 03:43:01;;;;;;;11.18;2.42;;;5.90;90.30;;;;;;5068473;28;20028;-68
2021/03/23 03:45:28;;;;;;;3.20;1.92;;;5.90;90.30;;;;;;5066590;28;20021;-68
2021/03/23 03:47:55;;;;;;;7.10;2.22;;;5.90;90.00;;;;;;5068448;28;20029;-68
2021/03/23 03:50:24;;;;;;;4.07;2.13;;;5.90;90.20;;;;;;5050911;28;20024;-68
2021/03/23 03:52:50;;;;;;;8.20;2.60;;;5.80;90.30;;;;;;5068287;28;20523;-66
2021/03/23 03:55:19;;;;;;;5.88;2.20;;;5.80;90.30;;;;;;5072117;28;20028;-67
2021/03/23 03:57:44;;;;;;;5.47;2.22;;;5.80;90.30;;;;;;5073826;28;20442;-68
2021/03/23 04:00:15;;;;;;;7.75;2.70;;;5.80;90.40;;;;;;5069366;28;20107;-67
2021/03/23 04:02:40;;;;;;;9.30;2.53;;;5.80;90.40;;;;;;5031157;28;20473;-65
2021/03/23 04:05:07;;;;;;;4.90;2.28;;;5.80;90.40;;;;;;5067465;28;20059;-69
2021/03/23 04:07:33;;;;;;;5.40;2.40;;;5.80;90.50;;;;;;5068338;28;20032;-68
2021/03/23 04:09:59;;;;;;;10.27;2.67;;;5.80;90.40;;;;;;5067848;28;20051;-68
2021/03/23 04:12:24;;;;;;;5.18;3.13;;;5.80;90.50;;;;;;5068605;28;20549;-69
2021/03/23 04:14:50;;;;;;;9.90;2.65;;;5.80;90.50;;;;;;5067364;28;20036;-69
2021/03/23 04:17:16;;;;;;;5.18;2.13;;;5.80;90.50;;;;;;5068075;28;20040;-67
2021/03/23 04:19:44;;;;;;;8.73;3.38;;;5.90;90.30;;;;;;5069668;28;20398;-67
2021/03/23 04:22:10;;;;;;;6.72;3.20;;;5.90;90.20;;;;;;5068392;28;20028;-68
2021/03/23 04:24:35;;;;;;;7.78;2.78;;;5.90;90.30;;;;;;5069670;28;20031;-68
2021/03/23 04:27:01;;;;;;;5.85;2.83;;;5.80;90.40;;;;;;5065583;28;20435;-69
2021/03/23 04:29:27;;;;;;;8.35;2.70;;;5.80;90.50;;;;;;5068736;28;20470;-68
2021/03/23 04:31:53;;;;;;;5.40;3.05;;;5.80;90.60;;;;;;5067227;28;20040;-69
2021/03/23 04:34:18;;;;;;;7.28;2.85;;;5.80;90.50;;;;;;5066933;28;20031;-69
2021/03/23 04:36:44;;;;;;;7.93;3.17;;;5.80;90.50;;;;;;5067021;28;20028;-69
2021/03/23 04:39:12;;;;;;;6.63;3.00;;;5.80;90.60;;;;;;5049379;28;20028;-68
2021/03/23 04:41:39;;;;;;;7.05;2.47;;;5.80;90.70;;;;;;5064339;28;20580;-69
2021/03/23 04:44:06;;;;;;;8.38;3.00;;;5.80;90.50;;;;;;5050308;28;20063;-69
2021/03/23 04:46:32;;;;;;;4.50;2.45;;;5.80;90.60;;;;;;5066980;28;20025;-68
2021/03/23 04:48:58;;;;;;;5.55;2.95;;;5.80;90.60;;;;;;5067867;28;20126;-67
2021/03/23 04:51:27;;;;;;;6.10;2.50;;;5.80;90.70;;;;;;5068479;28;20060;-68
2021/03/23 04:54:04;;;;;;;6.57;2.58;;;5.80;90.80;;;;;;5069042;28;20071;-67
2021/03/23 04:56:35;;;;;;;7.53;3.30;;;5.80;90.90;;;;;;5067096;28;20032;-67
2021/03/23 04:59:05;;;;;;;7.50;2.63;;;5.80;91.00;;;;;;5049875;28;20414;-68
2021/03/23 05:01:31;;;;;;;10.65;3.20;;;5.80;91.10;;;;;;5062324;28;20060;-68
2021/03/23 05:04:03;;;;;;;8.52;3.00;;;5.80;91.10;;;;;;5068982;28;20024;-68
2021/03/23 05:06:29;;;;;;;7.15;3.00;;;5.80;91.00;;;;;;5066437;28;20120;-67
2021/03/23 05:08:55;;;;;;;6.40;2.47;;;5.80;91.10;;;;;;5067211;28;20556;-68
2021/03/23 05:11:24;;;;;;;8.70;3.10;;;5.80;91.20;;;;;;5067204;28;20036;-68
2021/03/23 05:13:50;;;;;;;9.50;3.60;;;5.70;91.20;;;;;;5066770;28;20079;-67
2021/03/23 05:16:16;;;;;;;12.07;3.45;;;5.70;91.30;;;;;;5066166;28;20032;-66
2021/03/23 05:18:42;;;;;;;8.57;2.97;;;5.70;91.20;;;;;;5067292;28;20029;-67
2021/03/23 05:21:08;;;;;;;9.98;3.58;;;5.80;91.10;;;;;;5047138;28;20106;-68
2021/03/23 05:23:35;;;;;;;7.03;3.10;;;5.80;91.10;;;;;;5067693;28;20371;-68
2021/03/23 05:26:01;;;;;;;8.13;3.55;;;5.80;91.10;;;;;;5068465;28;20024;-69
2021/03/23 05:28:27;;;;;;;10.45;3.58;;;5.80;91.00;;;;;;5063549;28;20020;-69
2021/03/23 05:30:56;;;;;;;10.07;3.45;;;5.80;91.00;;;;;;5066905;28;20393;-68
2021/03/23 05:33:21;;;;;;;7.40;2.92;;;5.80;91.10;;;;;;5048706;28;20496;-69
2021/03/23 05:35:50;;;;;;;8.13;3.72;;;5.80;91.10;;;;;;5051216;28;20033;-69
2021/03/23 05:38:16;;;;;;;7.97;3.00;;;5.80;90.90;;;;;;5066728;28;20036;-69
2021/03/23 05:40:49;;;;;;;6.65;3.85;;;5.80;91.00;;;;;;5066820;28;20036;-68
2021/03/23 05:43:44;;;;;;;7.55;3.67;;;5.90;90.80;;;;;;5049056;28;20346;-69
2021/03/23 05:46:26;;;;;;;7.93;3.72;;;5.80;90.90;;;;;;4994560;28;20186;-68
2021/03/23 05:49:11;;;;;;;7.03;3.42;;;5.80;90.90;;;;;;5065091;28;20051;-69
2021/03/23 05:51:48;;;;;;;6.40;3.67;;;5.80;90.80;;;;;;5072027;28;20037;-71
2021/03/23 05:54:24;;;;;;;7.95;4.00;;;5.80;90.90;;;;;;5052641;28;20123;-72
2021/03/23 05:57:00;;;;;;;10.75;3.70;;;5.80;90.80;;;;;;5067081;28;20036;-72
2021/03/23 05:59:47;;;;;;;8.52;3.85;;;5.80;90.90;;;;;;5067586;28;20051;-72
2021/03/23 06:02:43;;;;;;;12.52;4.28;;;5.80;90.80;;;;;;5066032;28;20025;-72
2021/03/23 06:05:29;;;;;;;8.80;4.43;;;5.80;90.80;;;;;;5035622;28;20059;-72
2021/03/23 06:08:00;;;;;;;10.27;4.50;;;5.90;90.70;;;;;;5049705;28;20458;-72
2021/03/23 06:10:26;;;;;;;8.10;3.97;;;5.90;90.70;;;;;;5068432;28;20036;-72
2021/03/23 06:13:31;;;;;;;10.57;4.45;;;5.90;90.70;;;;;;5066412;28;20202;-73
2021/03/23 06:16:14;;;;;;;11.80;4.82;;;5.90;90.60;;;;;;5027594;28;20386;-73
2021/03/23 06:19:14;;;;;;;10.95;4.55;;;5.90;90.70;;;;;;5050015;28;20210;-72
2021/03/23 06:21:51;;;;;;;7.28;4.22;;;6.00;90.60;;;;;;5067788;28;20075;-73
2021/03/23 06:24:51;;;;;;;9.98;4.63;;;6.00;90.50;;;;;;5052547;28;20470;-74
2021/03/23 06:27:35;;;;;;;13.73;4.70;;;6.00;90.60;;;;;;5070046;28;20021;-72
2021/03/23 06:30:26;;;;;;;9.75;4.68;;;6.00;90.70;;;;;;5065853;28;20036;-72
2021/03/23 06:32:56;;;;;;;12.52;5.05;;;5.90;90.70;;;;;;5048608;28;20082;-71
2021/03/23 06:35:34;;;;;;;14.27;5.78;;;5.90;90.90;;;;;;5049327;28;20036;-72
2021/03/23 06:38:03;;;;;;;13.65;5.05;;;5.90;90.90;;;;;;5066907;28;20028;-70
2021/03/23 06:40:32;;;;;;;8.90;4.65;;;6.00;91.00;;;;;;5067848;28;20028;-70
2021/03/23 06:43:16;;;;;;;12.30;5.35;;;6.00;91.20;;;;;;5068549;28;20498;-70
2021/03/23 06:45:41;;;;;;;13.35;5.63;;;6.00;90.90;;;;;;5050548;28;20028;-71
2021/03/23 06:48:39;;;;;;;14.00;5.53;;;6.00;90.90;;;;;;5069427;28;20112;-71
2021/03/23 06:51:14;;;;;;;12.98;5.88;;;6.10;90.80;;;;;;5026554;28;20067;-71
2021/03/23 06:53:41;;;;;;;11.93;6.13;;;6.00;90.90;;;;;;5067297;28;20096;-70
2021/03/23 06:56:21;;;;;;;14.05;6.18;;;6.10;91.00;;;;;;5067178;28;20016;-71
2021/03/23 06:58:47;;;;;;;12.35;5.72;;;6.00;91.00;;;;;;5067558;28;20454;-71
2021/03/23 07:01:19;;;;;;;14.57;6.38;;;6.00;91.20;;;;;;5064991;28;20115;-70
2021/03/23 07:04:27;;;;;;;18.67;6.70;;;6.00;91.20;;;;;;5067522;28;20031;-70
2021/03/23 07:07:15;;;;;;;12.70;6.78;;;6.00;91.30;;;;;;5065995;28;20035;-71
2021/03/23 07:09:59;;;;;;;18.80;7.10;;;6.00;91.40;;;;;;5067709;28;20044;-70
2021/03/23 07:12:41;;;;;;;15.27;6.72;;;6.00;91.50;;;;;;5046879;28;20477;-70
2021/03/23 07:15:24;;;;;;;16.95;7.60;;;6.00;91.60;;;;;;5068461;28;20036;-70
2021/03/23 07:17:57;;;;;;;16.98;7.57;;;6.00;91.70;;;;;;5068341;28;20493;-70
2021/03/23 07:20:29;;;;;;;17.48;8.20;;;6.00;91.70;;;;;;5065250;28;20493;-69
2021/03/23 07:22:55;;;;;;;17.48;7.53;;;6.00;91.60;;;;;;5072169;28;20064;-69
2021/03/23 07:25:29;;;;;;;21.08;7.72;;;6.10;91.80;;;;;;5067030;28;20025;-69
2021/03/23 07:28:10;;;;;;;19.30;7.80;;;6.10;91.80;;;;;;5053400;28;20047;-69
2021/03/23 07:30:37;;;;;;;20.23;7.47;;;6.00;91.80;;;;;;5071132;28;20037;-70
2021/03/23 07:33:14;;;;;;;21.35;8.20;;;6.00;92.00;;;;;;5070873;28;20378;-71
2021/03/23 07:35:43;;;;;;;18.73;8.23;;;6.00;92.20;;;;;;5070518;28;20027;-70
2021/03/23 07:38:20;;;;;;;14.65;7.57;;;6.00;92.10;;;;;;5069805;28;20086;-69
2021/03/23 07:40:49;;;;;;;26.38;9.50;;;6.00;92.30;;;;;;5069891;28;20091;-70
2021/03/23 07:43:21;;;;;;;20.85;8.40;;;6.00;92.30;;;;;;5052116;28;20540;-71
2021/03/23 07:46:02;;;;;;;18.77;8.60;;;6.00;92.60;;;;;;5070578;28;20625;-71
2021/03/23 07:48:34;;;;;;;;;;;6.20;92.30;;;;;;5070894;28;20527;-71
2021/03/23 07:51:20;;;;;;;;;;;6.20;92.00;;;;;;5067400;28;19983;-70
2021/03/23 07:53:46;;;;;;;16.58;8.15;;;6.20;91.90;;;;;;5068275;28;19924;-71
2021/03/23 07:56:42;;;;;;;21.73;8.90;;;6.20;92.00;;;;;;5051895;28;20031;-71
2021/03/23 07:59:17;;;;;;;22.67;9.88;;;6.10;92.20;;;;;;5067986;28;20063;-71
2021/03/23 08:01:52;;;;;;;20.05;8.70;;;6.10;92.40;;;;;;5065983;28;20028;-69
2021/03/23 08:04:31;;;;;;;24.33;9.38;;;6.20;92.40;;;;;;5064989;28;20059;-69
2021/03/23 08:07:06;;;;;;;23.00;9.90;;;6.20;92.50;;;;;;5055492;28;20025;-70
2021/03/23 08:09:57;;;;;;;22.80;9.05;;;6.20;92.60;;;;;;5052140;28;20024;-70
2021/03/23 08:12:53;;;;;;;20.75;9.30;;;6.20;92.60;;;;;;5051720;28;20036;-69
2021/03/23 08:15:56;;;;;;;24.77;9.57;;;6.20;92.60;;;;;;5068758;28;20072;-68
2021/03/23 08:18:40;;;;;;;29.70;10.38;;;6.20;92.60;;;;;;5050302;28;20020;-69
2021/03/23 08:21:22;;;;;;;22.70;10.70;;;6.20;92.70;;;;;;5069249;28;20028;-70
2021/03/23 08:23:59;;;;;;;23.88;9.70;;;6.20;92.80;;;;;;5066653;28;20046;-70
2021/03/23 08:26:52;;;;;;;20.92;9.82;;;6.10;92.90;;;;;;5069161;28;20039;-70
2021/03/23 08:29:21;;;;;;;21.67;10.05;;;6.10;92.90;;;;;;5068795;28;20038;-70
2021/03/23 08:32:06;;;;;;;25.45;10.40;;;6.20;92.90;;;;;;5068370;28;20087;-69
2021/03/23 08:34:44;;;;;;;23.10;10.38;;;6.20;92.80;;;;;;5052126;28;20029;-72
2021/03/23 08:37:41;;;;;;;25.67;10.70;;;6.20;92.90;;;;;;5033800;28;20032;-71
2021/03/23 08:40:21;;;;;;;22.77;10.85;;;6.20;92.90;;;;;;5067801;28;20028;-71
2021/03/23 08:42:48;;;;;;;20.73;9.13;;;6.20;92.90;;;;;;5048980;28;20044;-70
2021/03/23 08:45:16;;;;;;;23.80;9.77;;;6.20;93.00;;;;;;5066809;28;20021;-70
2021/03/23 08:48:04;;;;;;;23.02;9.98;;;6.30;92.80;;;;;;5074890;28;20376;-71
2021/03/23 08:50:43;;;;;;;21.42;9.32;;;6.30;92.90;;;;;;5070469;28;20032;-70
2021/03/23 08:53:36;;;;;;;25.88;10.10;;;6.40;92.60;;;;;;5049984;28;20439;-70
2021/03/23 08:56:07;;;;;;;21.20;10.07;;;6.30;92.90;;;;;;5050399;28;20040;-70
2021/03/23 08:58:44;;;;;;;19.40;10.55;;;6.50;92.70;;;;;;5048557;28;20043;-72
2021/03/23 09:01:35;;;;;;;21.75;10.50;;;6.40;92.70;;;;;;5066698;28;20032;-71
2021/03/23 09:04:04;;;;;;;27.20;10.65;;;6.40;92.90;;;;;;5066472;28;20025;-71
2021/03/23 09:06:48;;;;;;;30.23;11.32;;;6.40;92.90;;;;;;5068385;28;20052;-70
2021/03/23 09:09:17;;;;;;;24.00;11.68;;;6.40;92.60;;;;;;5049973;28;20091;-71
2021/03/23 09:12:04;;;;;;;27.05;11.23;;;6.40;92.90;;;;;;5047491;28;20036;-71
2021/03/23 09:14:32;;;;;;;29.58;12.63;;;6.40;93.00;;;;;;5066869;28;20054;-70
2021/03/23 09:16:58;;;;;;;28.67;12.73;;;6.40;92.70;;;;;;5067184;28;20254;-71
2021/03/23 09:19:33;;;;;;;23.20;12.63;;;6.50;93.00;;;;;;5067559;28;20024;-71
2021/03/23 09:21:58;;;;;;;32.38;13.13;;;6.50;93.00;;;;;;5067067;28;20032;-71
2021/03/23 09:24:35;;;;;;;32.17;13.02;;;6.50;92.90;;;;;;5049791;28;20029;-71
2021/03/23 09:27:03;;;;;;;23.88;12.43;;;6.60;92.80;;;;;;5066739;28;20032;-70
2021/03/23 09:29:32;;;;;;;30.38;13.73;;;6.60;92.70;;;;;;5075430;22;20044;-74
2021/03/23 09:32:17;;;;;;;34.47;14.63;;;6.60;92.80;;;;;;5031677;28;20032;-74
2021/03/23 09:35:09;;;;;;;38.70;15.55;;;6.60;92.90;;;;;;5035596;28;20018;-75
2021/03/23 09:37:49;;;;;;;29.17;13.95;;;6.60;92.70;;;;;;5034535;28;20018;-73
2021/03/23 09:40:19;;;;;;;29.35;13.63;;;6.60;92.80;;;;;;5031130;28;20127;-74
2021/03/23 09:43:20;;;;;;;32.97;16.10;;;6.60;92.90;;;;;;5028084;28;20021;-74
2021/03/23 09:45:49;;;;;;;32.08;15.25;;;6.80;92.30;;;;;;5011818;28;20057;-76
2021/03/23 09:48:44;;;;;;;30.33;15.35;;;6.80;92.10;;;;;;5026388;28;20017;-75
2021/03/23 09:51:31;;;;;;;36.72;17.80;;;6.70;92.20;;;;;;5028330;28;20037;-74
2021/03/23 09:54:00;;;;;;;33.90;15.65;;;6.70;92.50;;;;;;5024970;28;20030;-75
2021/03/23 09:56:36;;;;;;;32.80;15.82;;;6.80;92.30;;;;;;5025447;28;20061;-73
2021/03/23 09:59:11;;;;;;;33.72;15.82;;;6.80;92.30;;;;;;5011540;28;20069;-74
2021/03/23 10:01:55;;;;;;;35.90;17.45;;;6.80;92.30;;;;;;5020371;28;20032;-74
2021/03/23 10:04:33;;;;;;;32.33;16.05;;;6.80;91.90;;;;;;5024931;28;20157;-75
2021/03/23 10:07:00;;;;;;;39.88;14.98;;;7.00;92.60;;;;;;5021949;28;20025;-74
2021/03/23 10:09:29;;;;;;;33.22;16.48;;;7.40;92.00;;;;;;5011401;28;20021;-74
2021/03/23 10:11:55;;;;;;;34.67;16.50;;;7.60;90.20;;;;;;5030668;28;20483;-74
2021/03/23 10:14:36;;;;;;;39.25;14.93;;;7.50;90.10;;;;;;5030666;28;20491;-74
2021/03/23 10:17:24;;;;;;;32.92;15.25;;;7.50;90.50;;;;;;5031911;28;20041;-74
2021/03/23 10:20:00;;;;;;;35.67;15.25;;;7.60;90.50;;;;;;5025345;28;20518;-74
2021/03/23 10:22:31;;;;;;;33.90;17.38;;;7.80;89.00;;;;;;5029714;28;20017;-75
2021/03/23 10:24:57;;;;;;;;;;;7.70;88.70;;;;;;5031361;28;20026;-74
2021/03/23 10:27:31;;;;;;;35.40;15.70;;;7.80;87.80;;;;;;5029378;28;20036;-74
2021/03/23 10:30:11;;;;;;;28.00;15.20;;;7.70;87.80;;;;;;5031723;28;20051;-74
2021/03/23 10:32:51;;;;;;;26.92;13.85;;;7.50;88.40;;;;;;5030777;28;20033;-73
2021/03/23 10:35:48;;;;;;;37.10;16.10;;;7.40;89.70;;;;;;5030683;28;20033;-73
2021/03/23 10:38:22;;;;;;;27.83;14.57;;;7.30;89.20;;;;;;5013939;28;20438;-74
2021/03/23 10:40:53;;;;;;;30.08;16.05;;;7.20;90.10;;;;;;5010423;28;20103;-73
2021/03/23 10:43:33;;;;;;;;;;;7.20;89.60;;;;;;5027702;28;20076;-75
2021/03/23 10:46:01;;;;;;;33.88;16.15;;;7.20;89.50;;;;;;5008093;28;19917;-73
2021/03/23 10:48:37;;;;;;;30.45;16.50;;;7.20;89.10;;;;;;5010318;28;20046;-73
2021/03/23 10:51:25;;;;;;;34.15;15.55;;;7.20;89.60;;;;;;5027122;28;20598;-73
2021/03/23 10:54:03;;;;;;;34.90;16.30;;;7.10;89.40;;;;;;5009991;28;20037;-73
2021/03/23 10:56:41;;;;;;;35.78;16.90;;;7.10;89.30;;;;;;5012700;28;20052;-73
2021/03/23 10:59:13;;;;;;;37.30;16.30;;;7.10;89.40;;;;;;5013399;28;20120;-73
2021/03/23 11:01:58;;;;;;;29.40;14.98;;;7.10;89.30;;;;;;5029522;28;20048;-73
2021/03/23 11:04:24;;;;;;;31.08;15.25;;;7.10;89.20;;;;;;5028897;28;20040;-73
2021/03/23 11:06:50;;;;;;;34.67;17.58;;;7.10;89.20;;;;;;5010013;28;20030;-73
2021/03/23 11:09:17;;;;;;;30.65;15.05;;;7.10;89.60;;;;;;5029567;28;20029;-73
2021/03/23 11:11:49;;;;;;;28.05;15.25;;;7.10;90.00;;;;;;5012036;28;20386;-73
2021/03/23 11:14:15;;;;;;;30.27;15.93;;;7.20;88.60;;;;;;5015143;28;20092;-73
2021/03/23 11:16:44;;;;;;;32.30;17.17;;;7.20;88.70;;;;;;5030460;28;20047;-72
2021/03/23 11:19:22;;;;;;;32.28;16.67;;;7.20;88.70;;;;;;5013457;28;20026;-72
2021/03/23 11:21:47;;;;;;;35.58;17.13;;;7.20;89.10;;;;;;5033509;28;20033;-73
2021/03/23 11:24:13;;;;;;;30.60;16.95;;;7.20;89.20;;;;;;5032119;28;20084;-73
2021/03/23 11:26:43;;;;;;;32.67;15.63;;;7.20;89.60;;;;;;5033200;28;20471;-74
2021/03/23 11:29:10;;;;;;;33.47;16.90;;;7.20;89.20;;;;;;5030419;28;20034;-74
2021/03/23 11:31:37;;;;;;;34.55;18.02;;;7.20;88.50;;;;;;5030694;28;20108;-74
2021/03/23 11:34:04;;;;;;;37.42;16.42;;;7.30;88.90;;;;;;5032248;28;20052;-73
2021/03/23 11:36:31;;;;;;;42.20;16.98;;;7.30;88.50;;;;;;5013452;28;20037;-73
2021/03/23 11:38:57;;;;;;;29.35;16.17;;;7.40;88.00;;;;;;5028257;28;20068;-74
2021/03/23 11:41:22;;;;;;;32.92;17.33;;;7.40;88.20;;;;;;5010291;28;20250;-73
2021/03/23 11:43:51;;;;;;;35.00;17.65;;;7.40;88.50;;;;;;5028656;28;20091;-73
2021/03/23 11:46:26;;;;;;;34.25;18.17;;;7.50;88.40;;;;;;5031055;28;20709;-76
2021/03/23 11:49:06;;;;;;;36.83;16.80;;;7.60;86.90;;;;;;5031918;28;20029;-74
2021/03/23 11:51:31;;;;;;;32.53;16.95;;;7.60;86.30;;;;;;5033921;28;20029;-70
2021/03/23 11:53:57;;;;;;;38.15;17.92;;;7.70;86.20;;;;;;5030760;28;20026;-71
2021/03/23 11:56:23;;;;;;;38.40;17.45;;;7.80;85.40;;;;;;5013716;28;20133;-71
2021/03/23 11:58:49;;;;;;;32.30;16.55;;;7.80;85.00;;;;;;5030637;28;20456;-72
2021/03/23 12:01:15;;;;;;;33.58;17.45;;;7.80;86.50;;;;;;5025769;28;20495;-72
2021/03/23 12:03:41;;;;;;;35.03;16.88;;;7.80;84.70;;;;;;5013701;28;20022;-71
2021/03/23 12:06:08;;;;;;;34.05;17.38;;;7.70;85.30;;;;;;5031543;28;20026;-72
2021/03/23 12:08:45;;;;;;;36.63;18.42;;;7.80;85.10;;;;;;5014802;28;20026;-75
2021/03/23 12:11:33;;;;;;;36.00;18.05;;;7.80;84.40;;;;;;5030950;28;20103;-75
2021/03/23 12:14:25;;;;;;;36.50;17.65;;;7.90;83.90;;;;;;5033637;28;20033;-75
2021/03/23 12:17:11;;;;;;;33.67;17.17;;;7.80;84.10;;;;;;5016040;28;20084;-75
2021/03/23 12:19:47;;;;;;;37.42;17.92;;;7.60;84.90;;;;;;5033755;28;20225;-74
2021/03/23 12:22:13;;;;;;;43.47;18.52;;;7.70;84.90;;;;;;5016280;28;20461;-74
2021/03/23 12:24:42;;;;;;;39.72;18.63;;;7.70;84.90;;;;;;5010909;28;20115;-75
2021/03/23 12:27:09;;;;;;;34.92;19.00;;;7.70;85.00;;;;;;4999646;28;20022;-73
2021/03/23 12:29:39;;;;;;;32.92;17.63;;;7.80;84.00;;;;;;5014635;28;20027;-75
2021/03/23 12:32:11;;;;;;;36.58;18.33;;;7.90;84.30;;;;;;5030119;28;20025;-74
2021/03/23 12:34:37;;;;;;;39.00;18.38;;;7.90;84.90;;;;;;5027261;28;20057;-74
2021/03/23 12:37:03;;;;;;;43.38;20.58;;;7.90;83.90;;;;;;5027164;28;20030;-74
2021/03/23 12:39:29;;;;;;;35.78;18.70;;;7.90;83.20;;;;;;5008352;28;20570;-74
2021/03/23 12:41:55;;;;;;;39.83;19.52;;;8.10;82.20;;;;;;5027534;28;20152;-74
2021/03/23 12:44:21;;;;;;;37.78;18.98;;;8.10;82.40;;;;;;5029708;28;20399;-74
2021/03/23 12:46:47;;;;;;;37.08;18.55;;;8.00;82.70;;;;;;5004841;28;20025;-74
2021/03/23 12:52:07;;;;;;;33.22;17.60;;;8.00;83.10;;;;;;5030552;28;20025;-74
2021/03/23 12:54:45;;;;;;;39.83;19.02;;;8.10;82.50;;;;;;5012867;28;20148;-74
2021/03/23 12:57:18;;;;;;;38.05;18.67;;;8.00;82.80;;;;;;5023106;28;20025;-73
2021/03/23 12:59:45;;;;;;;39.80;21.75;;;8.00;83.60;;;;;;5010920;28;20025;-73
2021/03/23 13:02:17;;;;;;;43.58;20.38;;;8.00;83.00;;;;;;5027505;28;20144;-74
2021/03/23 13:04:43;;;;;;;37.70;19.08;;;8.00;83.20;;;;;;5030334;28;20481;-74
2021/03/23 13:07:22;;;;;;;38.15;18.48;;;8.00;82.90;;;;;;5027203;28;20029;-74
2021/03/23 13:09:48;;;;;;;38.47;20.20;;;8.10;82.50;;;;;;5013522;28;20017;-73
2021/03/23 13:12:15;;;;;;;41.00;19.08;;;8.10;82.70;;;;;;5012291;28;20558;-73
2021/03/23 13:14:41;;;;;;;41.60;19.15;;;8.20;82.50;;;;;;5032118;28;20029;-73
2021/03/23 13:17:13;;;;;;;34.90;18.17;;;8.30;81.70;;;;;;5033679;28;20030;-72